createdAt,value
2022-09-27T00:03:02.590Z,31.00
2022-09-27T00:13:07.340Z,31.00
2022-09-27T00:18:09.907Z,30.90
2022-09-27T00:23:12.092Z,31.00
2022-09-27T00:28:14.367Z,32.00
2022-09-27T00:33:16.664Z,31.90
2022-09-27T00:38:18.951Z,31.90
2022-09-27T00:43:23.705Z,31.20
2022-09-27T00:48:31.349Z,31.20
2022-09-27T00:53:49.175Z,32.10
2022-09-27T00:59:15.663Z,31.30
2022-09-27T01:04:28.715Z,31.30
2022-09-27T01:09:31.382Z,32.40
2022-09-27T01:15:12.154Z,32.00
2022-09-27T01:20:38.788Z,31.90
2022-09-27T01:25:49.863Z,31.80
2022-09-27T01:31:25.287Z,30.90
2022-09-27T01:37:05.083Z,31.60
2022-09-27T01:42:47.301Z,30.50
2022-09-27T01:47:57.337Z,31.10
2022-09-27T01:53:23.102Z,30.50
2022-09-27T01:58:44.340Z,30.50
2022-09-27T02:03:50.565Z,31.10
2022-09-27T02:09:08.098Z,30.30
2022-09-27T02:14:40.228Z,30.30
2022-09-27T02:19:51.715Z,31.20
2022-09-27T02:25:00.922Z,31.30
2022-09-27T02:30:11.806Z,30.10
2022-09-27T02:35:27.889Z,30.80
2022-09-27T02:40:33.262Z,30.70
2022-09-27T02:45:58.311Z,30.00
2022-09-27T02:51:37.378Z,31.50
2022-09-27T02:56:58.673Z,30.30
2022-09-27T03:02:19.520Z,29.80
2022-09-27T03:07:23.187Z,30.20
2022-09-27T03:12:26.278Z,29.30
2022-09-27T03:17:29.009Z,29.50
2022-09-27T03:22:35.418Z,30.00
2022-09-27T03:27:37.562Z,29.10
2022-09-27T03:32:46.126Z,29.30
2022-09-27T03:37:55.832Z,29.20
2022-09-27T03:42:58.013Z,29.60
2022-09-27T03:48:00.767Z,29.50
2022-09-27T03:53:03.252Z,29.40
2022-09-27T03:58:05.709Z,29.50
2022-09-27T04:03:08.324Z,28.60
2022-09-27T04:08:13.856Z,29.50
2022-09-27T04:13:16.356Z,29.10
2022-09-27T04:18:18.970Z,29.10
2022-09-27T04:23:29.068Z,28.60
2022-09-27T04:28:33.282Z,29.10
2022-09-27T04:33:35.707Z,29.00
2022-09-27T04:38:38.757Z,28.50
2022-09-27T04:43:42.018Z,28.40
2022-09-27T04:48:44.226Z,28.80
2022-09-27T04:58:49.419Z,28.40
2022-09-27T05:03:51.857Z,28.20
2022-09-27T05:08:54.063Z,28.50
2022-09-27T05:13:57.055Z,28.00
2022-09-27T05:18:59.750Z,27.90
2022-09-27T05:24:09.673Z,28.00
2022-09-27T05:29:11.796Z,27.70
2022-09-27T05:34:15.485Z,27.70
2022-09-27T05:39:18.919Z,27.70
2022-09-27T05:44:22.023Z,27.70
2022-09-27T05:49:25.081Z,28.20
2022-09-27T05:54:29.465Z,28.10
2022-09-27T05:59:32.219Z,27.70
2022-09-27T06:04:38.375Z,28.20
2022-09-27T06:09:44.106Z,28.00
2022-09-27T06:14:48.011Z,27.80
2022-09-27T06:19:50.209Z,27.90
2022-09-27T06:24:52.350Z,27.10
2022-09-27T06:29:55.862Z,27.60
2022-09-27T06:35:00.460Z,26.90
2022-09-27T06:40:03.617Z,27.40
2022-09-27T06:45:08.560Z,27.00
2022-09-27T06:50:16.768Z,26.90
2022-09-27T06:55:19.182Z,27.30
2022-09-27T07:00:24.548Z,26.60
2022-09-27T07:05:34.606Z,26.50
2022-09-27T07:10:37.589Z,26.30
2022-09-27T07:15:41.550Z,26.40
2022-09-27T07:20:46.085Z,26.00
2022-09-27T07:25:48.415Z,26.60
2022-09-27T07:30:55.687Z,26.10
2022-09-27T07:35:58.607Z,26.00
2022-09-27T07:41:08.034Z,26.00
2022-09-27T07:46:11.138Z,25.80
2022-09-27T07:51:13.280Z,25.50
2022-09-27T07:56:15.915Z,25.50
2022-09-27T08:01:18.729Z,25.60
2022-09-27T08:06:20.965Z,25.50
2022-09-27T08:11:23.688Z,25.20
2022-09-27T08:16:26.097Z,25.20
2022-09-27T08:21:34.844Z,25.10
2022-09-27T08:26:37.629Z,25.00
2022-09-27T08:31:40.041Z,24.70
2022-09-27T08:36:43.772Z,24.50
2022-09-27T08:42:17.590Z,24.60
2022-09-27T08:47:34.872Z,24.40
2022-09-27T08:52:41.404Z,24.80
2022-09-27T08:57:48.313Z,24.70
2022-09-27T09:02:50.729Z,24.10
2022-09-27T09:08:21.960Z,24.40
2022-09-27T09:13:39.561Z,23.50
2022-09-27T09:19:05.960Z,23.20
2022-09-27T09:24:37.447Z,22.00
2022-09-27T09:30:10.918Z,22.10
2022-09-27T09:35:25.858Z,22.10
2022-09-27T09:40:31.272Z,22.10
2022-09-27T09:45:55.676Z,22.10
2022-09-27T09:51:01.429Z,22.20
2022-09-27T09:56:10.584Z,22.00
2022-09-27T10:01:41.213Z,21.80
2022-09-27T10:06:43.813Z,22.50
2022-09-27T10:11:48.094Z,22.30
2022-09-27T10:16:58.462Z,21.40
2022-09-27T10:22:18.656Z,21.80
2022-09-27T10:27:21.683Z,21.70
2022-09-27T10:32:36.153Z,21.40
2022-09-27T10:37:43.232Z,20.80
2022-09-27T10:42:45.792Z,21.50
2022-09-27T10:47:48.519Z,21.20
2022-09-27T10:53:04.535Z,21.00
2022-09-27T11:03:16.312Z,20.20
2022-09-27T11:08:19.974Z,19.00
2022-09-27T11:13:22.585Z,19.00
2022-09-27T11:18:47.086Z,19.90
2022-09-27T11:24:20.443Z,18.60
2022-09-27T11:29:36.087Z,18.60
2022-09-27T11:34:54.007Z,18.30
2022-09-27T11:40:09.288Z,19.00
2022-09-27T11:51:04.963Z,18.60
2022-09-27T11:56:25.226Z,18.50
2022-09-27T12:01:51.205Z,18.60
2022-09-27T12:07:12.924Z,18.60
2022-09-27T12:12:23.589Z,18.10
2022-09-27T12:17:38.776Z,18.10
2022-09-27T12:22:58.997Z,18.10
2022-09-27T12:28:37.025Z,17.90
2022-09-27T12:33:45.764Z,17.40
2022-09-27T12:39:06.318Z,16.60
2022-09-27T12:44:13.779Z,17.40
2022-09-27T12:49:37.899Z,16.20
2022-09-27T12:55:02.309Z,15.00
2022-09-27T13:00:42.845Z,13.60
2022-09-27T13:06:19.709Z,14.00
2022-09-27T13:11:43.096Z,13.60
2022-09-27T13:16:47.624Z,14.00
2022-09-27T13:21:54.452Z,14.60
2022-09-27T13:27:01.031Z,14.70
2022-09-27T13:32:15.204Z,14.50
2022-09-27T13:37:56.570Z,14.70
2022-09-27T13:42:59.100Z,15.50
2022-09-27T13:48:15.347Z,16.60
2022-09-27T13:53:37.943Z,18.30
2022-09-27T13:58:50.961Z,18.30
2022-09-27T14:04:02.727Z,18.50
2022-09-27T14:09:14.613Z,20.80
2022-09-27T14:14:23.655Z,20.80
2022-09-27T14:19:28.857Z,21.10
2022-09-27T14:24:32.855Z,20.00
2022-09-27T14:29:46.454Z,21.20
2022-09-27T14:35:34.380Z,20.80
2022-09-27T14:40:45.819Z,20.90
2022-09-27T14:45:51.507Z,18.60
2022-09-27T14:51:05.006Z,19.10
2022-09-27T14:56:19.566Z,18.50
2022-09-27T15:01:21.734Z,19.00
2022-09-27T15:06:25.263Z,19.70
2022-09-27T15:11:29.824Z,20.30
2022-09-27T15:16:32.165Z,21.60
2022-09-27T15:21:36.861Z,21.50
2022-09-27T15:26:46.165Z,21.10
2022-09-27T15:32:03.454Z,21.50
2022-09-27T15:37:08.778Z,21.60
2022-09-27T15:42:14.319Z,21.90
2022-09-27T15:47:40.293Z,21.50
2022-09-27T15:52:45.588Z,20.40
2022-09-27T15:57:51.222Z,20.50
2022-09-27T16:02:53.883Z,20.30
2022-09-27T16:07:57.771Z,20.30
2022-09-27T16:12:59.842Z,20.10
2022-09-27T16:18:01.870Z,19.80
2022-09-27T16:23:04.531Z,20.10
2022-09-27T16:28:09.623Z,20.00
2022-09-27T16:33:11.732Z,20.30
2022-09-27T16:38:13.749Z,19.80
2022-09-27T16:43:16.492Z,19.90
2022-09-27T16:48:18.461Z,19.90
2022-09-27T16:53:20.549Z,20.10
2022-09-27T16:58:22.597Z,20.40
2022-09-27T17:03:24.803Z,21.10
2022-09-27T17:08:26.849Z,20.90
2022-09-27T17:13:28.995Z,20.00
2022-09-27T17:18:31.057Z,20.40
2022-09-27T17:23:34.022Z,21.20
2022-09-27T17:28:36.705Z,20.20
2022-09-27T17:33:47.866Z,21.10
2022-09-27T17:38:51.487Z,21.20
2022-09-27T17:44:01.235Z,20.60
2022-09-27T17:49:22.762Z,21.50
2022-09-27T17:54:27.740Z,21.40
2022-09-27T17:59:29.914Z,21.00
2022-09-27T18:04:32.004Z,22.50
2022-09-27T18:09:34.133Z,21.80
2022-09-27T18:14:36.502Z,22.00
2022-09-27T18:19:39.059Z,22.10
2022-09-27T18:24:41.217Z,21.60
2022-09-27T18:29:43.364Z,22.40
2022-09-27T18:34:45.441Z,22.00
2022-09-27T18:39:47.494Z,22.90
2022-09-27T18:44:49.506Z,23.10
2022-09-27T18:49:51.521Z,23.60
2022-09-27T18:54:54.634Z,23.80
2022-09-27T18:59:56.641Z,23.30
2022-09-27T19:04:58.933Z,24.00
2022-09-27T19:10:01.719Z,24.00
2022-09-27T19:15:03.819Z,24.50
2022-09-27T19:20:08.066Z,23.90
2022-09-27T19:25:10.234Z,24.90
2022-09-27T19:30:13.269Z,25.20
2022-09-27T19:35:15.363Z,24.40
2022-09-27T19:40:17.521Z,25.30
2022-09-27T19:45:20.529Z,24.70
2022-09-27T19:50:23.555Z,24.90
2022-09-27T19:55:25.599Z,25.40
2022-09-27T20:00:27.634Z,24.90
2022-09-27T20:05:29.690Z,25.60
2022-09-27T20:10:31.738Z,25.70
2022-09-27T20:15:33.773Z,26.30
2022-09-27T20:20:36.992Z,25.70
2022-09-27T20:25:42.935Z,25.70
2022-09-27T20:30:59.060Z,25.20
2022-09-27T20:36:01.308Z,25.80
2022-09-27T20:41:03.896Z,26.00
2022-09-27T20:46:12.220Z,25.10
2022-09-27T20:51:14.753Z,25.20
2022-09-27T20:56:25.312Z,25.50
2022-09-27T21:01:28.943Z,25.50
2022-09-27T21:06:32.334Z,26.30
2022-09-27T21:11:34.894Z,25.90
2022-09-27T21:16:36.982Z,26.50
2022-09-27T21:21:39.035Z,26.60
2022-09-27T21:26:41.158Z,26.80
2022-09-27T21:31:43.423Z,26.40
2022-09-27T21:36:45.599Z,26.30
2022-09-27T21:41:47.607Z,27.00
2022-09-27T21:46:50.591Z,26.70
2022-09-27T21:51:52.858Z,26.40
2022-09-27T21:56:54.928Z,26.60
2022-09-27T22:01:57.016Z,26.70
2022-09-27T22:06:59.099Z,27.40
2022-09-27T22:12:01.510Z,26.90
2022-09-27T22:17:03.598Z,27.20
2022-09-27T22:22:05.633Z,27.10
2022-09-27T22:27:07.701Z,26.80
2022-09-27T22:32:09.739Z,27.90
2022-09-27T22:37:11.809Z,27.80
2022-09-27T22:42:14.015Z,27.90
2022-09-27T22:47:17.020Z,27.80
2022-09-27T22:52:19.046Z,27.80
2022-09-27T22:57:21.096Z,27.20
2022-09-27T23:02:23.160Z,27.20
2022-09-27T23:07:25.213Z,27.90
2022-09-27T23:12:27.209Z,27.20
2022-09-27T23:17:29.238Z,27.90
2022-09-27T23:22:34.670Z,27.50
2022-09-27T23:27:42.744Z,27.80
2022-09-27T23:32:51.353Z,28.20
2022-09-27T23:37:54.323Z,28.80
2022-09-27T23:42:58.247Z,28.90
2022-09-27T23:48:00.258Z,28.20
2022-09-27T23:53:02.246Z,28.20
2022-09-27T23:58:04.318Z,29.20
